sensor_id;sensor_type;location;lat;lon;timestamp;pressure;altitude;pressure_sealevel;temperature;humidity
71165;BME280;58859;55.132;-1.586;2023-04-01T00:00:31;99883.72;;;10.44;100.00
71165;BME280;58859;55.132;-1.586;2023-04-01T00:02:57;99884.13;;;10.71;100.00
71165;BME280;58859;55.132;-1.586;2023-04-01T00:05:23;99875.13;;;10.35;100.00
71165;BME280;58859;55.132;-1.586;2023-04-01T00:07:49;99887.16;;;10.20;100.00
71165;BME280;58859;55.132;-1.586;2023-04-01T00:10:15;99893.31;;;10.19;100.00
71165;BME280;58859;55.132;-1.586;2023-04-01T00:12:41;99886.50;;;9.94;100.00
71165;BME280;58859;55.132;-1.586;2023-04-01T00:15:08;99885.84;;;10.32;100.00
71165;BME280;58859;55.132;-1.586;2023-04-01T00:17:34;99901.47;;;10.16;100.00
71165;BME280;58859;55.132;-1.586;2023-04-01T00:20:00;99898.50;;;10.11;100.00
71165;BME280;58859;55.132;-1.586;2023-04-01T00:22:25;99881.63;;;9.91;100.00
71165;BME280;58859;55.132;-1.586;2023-04-01T00:24:51;99894.94;;;9.88;100.00
71165;BME280;58859;55.132;-1.586;2023-04-01T00:27:17;99904.63;;;10.50;100.00
71165;BME280;58859;55.132;-1.586;2023-04-01T00:29:44;99898.03;;;10.31;100.00
71165;BME280;58859;55.132;-1.586;2023-04-01T00:32:09;99897.38;;;10.37;100.00
71165;BME280;58859;55.132;-1.586;2023-04-01T00:34:35;99884.72;;;10.34;100.00
71165;BME280;58859;55.132;-1.586;2023-04-01T00:37:00;99897.72;;;10.18;100.00
71165;BME280;58859;55.132;-1.586;2023-04-01T00:39:29;99906.78;;;10.30;100.00
71165;BME280;58859;55.132;-1.586;2023-04-01T00:41:54;99901.06;;;10.51;100.00
71165;BME280;58859;55.132;-1.586;2023-04-01T00:44:26;99906.34;;;10.27;100.00
71165;BME280;58859;55.132;-1.586;2023-04-01T00:46:52;99897.06;;;10.16;100.00
71165;BME280;58859;55.132;-1.586;2023-04-01T00:49:21;99909.06;;;10.25;100.00
71165;BME280;58859;55.132;-1.586;2023-04-01T00:51:50;99911.34;;;10.12;100.00
71165;BME280;58859;55.132;-1.586;2023-04-01T00:54:19;99907.81;;;10.21;100.00
71165;BME280;58859;55.132;-1.586;2023-04-01T00:56:56;99917.03;;;9.83;100.00
71165;BME280;58859;55.132;-1.586;2023-04-01T00:59:44;99916.19;;;9.99;100.00
71165;BME280;58859;55.132;-1.586;2023-04-01T01:02:11;99919.13;;;9.88;100.00
71165;BME280;58859;55.132;-1.586;2023-04-01T01:04:38;99915.56;;;9.97;100.00
71165;BME280;58859;55.132;-1.586;2023-04-01T01:07:36;99921.91;;;9.95;100.00
71165;BME280;58859;55.132;-1.586;2023-04-01T01:10:16;99929.38;;;9.81;100.00
71165;BME280;58859;55.132;-1.586;2023-04-01T01:12:59;99924.81;;;10.08;100.00
71165;BME280;58859;55.132;-1.586;2023-04-01T01:15:53;99927.59;;;10.14;100.00
71165;BME280;58859;55.132;-1.586;2023-04-01T01:31:36;99942.38;;;10.22;100.00
71165;BME280;58859;55.132;-1.586;2023-04-01T01:36:38;99948.69;;;9.95;100.00
71165;BME280;58859;55.132;-1.586;2023-04-01T01:39:06;99941.19;;;9.68;100.00
71165;BME280;58859;55.132;-1.586;2023-04-01T01:41:35;99946.91;;;10.04;100.00
71165;BME280;58859;55.132;-1.586;2023-04-01T01:44:03;99953.06;;;10.03;100.00
71165;BME280;58859;55.132;-1.586;2023-04-01T01:46:31;99955.66;;;9.95;100.00
71165;BME280;58859;55.132;-1.586;2023-04-01T01:48:57;99956.34;;;10.21;100.00
71165;BME280;58859;55.132;-1.586;2023-04-01T01:51:26;99956.97;;;9.99;100.00
71165;BME280;58859;55.132;-1.586;2023-04-01T01:53:52;99957.50;;;10.18;100.00
71165;BME280;58859;55.132;-1.586;2023-04-01T01:56:19;99955.19;;;10.07;100.00
71165;BME280;58859;55.132;-1.586;2023-04-01T01:58:49;99954.56;;;10.13;100.00
71165;BME280;58859;55.132;-1.586;2023-04-01T02:01:29;99963.63;;;10.01;100.00
71165;BME280;58859;55.132;-1.586;2023-04-01T02:03:57;99960.09;;;10.26;100.00
71165;BME280;58859;55.132;-1.586;2023-04-01T02:06:25;99958.13;;;10.12;100.00
71165;BME280;58859;55.132;-1.586;2023-04-01T02:08:54;99975.50;;;10.20;100.00
71165;BME280;58859;55.132;-1.586;2023-04-01T02:11:28;99974.66;;;10.11;100.00
71165;BME280;58859;55.132;-1.586;2023-04-01T02:14:00;99983.78;;;10.07;100.00
71165;BME280;58859;55.132;-1.586;2023-04-01T02:16:32;99982.78;;;10.08;100.00
71165;BME280;58859;55.132;-1.586;2023-04-01T02:19:01;99987.97;;;10.08;100.00
71165;BME280;58859;55.132;-1.586;2023-04-01T02:21:32;99992.56;;;10.14;100.00
71165;BME280;58859;55.132;-1.586;2023-04-01T02:24:00;99995.16;;;10.14;100.00
71165;BME280;58859;55.132;-1.586;2023-04-01T02:26:26;99993.06;;;10.26;100.00
71165;BME280;58859;55.132;-1.586;2023-04-01T02:28:54;99993.22;;;10.16;100.00
71165;BME280;58859;55.132;-1.586;2023-04-01T02:31:20;99997.25;;;10.19;100.00
71165;BME280;58859;55.132;-1.586;2023-04-01T02:33:47;99999.69;;;10.12;100.00
71165;BME280;58859;55.132;-1.586;2023-04-01T02:36:14;100005.06;;;10.19;100.00
71165;BME280;58859;55.132;-1.586;2023-04-01T02:38:41;100011.41;;;10.32;100.00
71165;BME280;58859;55.132;-1.586;2023-04-01T02:41:07;100006.06;;;10.26;100.00
71165;BME280;58859;55.132;-1.586;2023-04-01T02:43:32;100014.50;;;10.52;100.00
71165;BME280;58859;55.132;-1.586;2023-04-01T02:45:58;100007.50;;;10.28;100.00
71165;BME280;58859;55.132;-1.586;2023-04-01T02:48:23;100007.13;;;9.99;100.00
71165;BME280;58859;55.132;-1.586;2023-04-01T02:50:49;100013.31;;;10.06;100.00
71165;BME280;58859;55.132;-1.586;2023-04-01T02:53:15;100013.94;;;9.84;100.00
71165;BME280;58859;55.132;-1.586;2023-04-01T02:55:40;100004.22;;;10.10;100.00
71165;BME280;58859;55.132;-1.586;2023-04-01T02:58:05;100009.91;;;10.06;100.00
71165;BME280;58859;55.132;-1.586;2023-04-01T03:00:31;100015.91;;;10.06;100.00
71165;BME280;58859;55.132;-1.586;2023-04-01T03:02:57;100018.34;;;10.00;100.00
71165;BME280;58859;55.132;-1.586;2023-04-01T03:05:22;100016.72;;;9.99;100.00
71165;BME280;58859;55.132;-1.586;2023-04-01T03:07:48;100021.97;;;10.15;100.00
71165;BME280;58859;55.132;-1.586;2023-04-01T03:10:13;100023.53;;;10.00;100.00
71165;BME280;58859;55.132;-1.586;2023-04-01T03:12:39;100025.69;;;10.28;100.00
71165;BME280;58859;55.132;-1.586;2023-04-01T03:15:05;100023.84;;;9.89;100.00
71165;BME280;58859;55.132;-1.586;2023-04-01T03:17:30;100028.41;;;10.03;100.00
71165;BME280;58859;55.132;-1.586;2023-04-01T03:19:56;100028.41;;;10.11;100.00
71165;BME280;58859;55.132;-1.586;2023-04-01T03:22:21;100040.88;;;9.91;100.00
71165;BME280;58859;55.132;-1.586;2023-04-01T03:24:49;100043.16;;;9.94;100.00
71165;BME280;58859;55.132;-1.586;2023-04-01T03:27:14;100029.81;;;9.73;100.00
71165;BME280;58859;55.132;-1.586;2023-04-01T03:29:40;100046.66;;;9.69;100.00
71165;BME280;58859;55.132;-1.586;2023-04-01T03:32:06;100044.63;;;9.97;100.00
71165;BME280;58859;55.132;-1.586;2023-04-01T03:34:31;100038.25;;;9.83;100.00
71165;BME280;58859;55.132;-1.586;2023-04-01T03:36:57;100047.84;;;9.91;100.00
71165;BME280;58859;55.132;-1.586;2023-04-01T03:39:22;100050.63;;;9.89;100.00
71165;BME280;58859;55.132;-1.586;2023-04-01T03:41:48;100054.63;;;9.67;100.00
71165;BME280;58859;55.132;-1.586;2023-04-01T03:44:13;100052.38;;;9.80;100.00
71165;BME280;58859;55.132;-1.586;2023-04-01T03:46:39;100058.75;;;9.94;100.00
71165;BME280;58859;55.132;-1.586;2023-04-01T03:49:09;100054.84;;;9.90;100.00
71165;BME280;58859;55.132;-1.586;2023-04-01T03:51:41;100053.00;;;9.74;100.00
71165;BME280;58859;55.132;-1.586;2023-04-01T03:54:07;100057.47;;;9.98;100.00
71165;BME280;58859;55.132;-1.586;2023-04-01T03:56:33;100059.97;;;9.74;100.00
71165;BME280;58859;55.132;-1.586;2023-04-01T03:59:01;100054.31;;;9.70;100.00
71165;BME280;58859;55.132;-1.586;2023-04-01T04:01:27;100068.19;;;9.53;100.00
71165;BME280;58859;55.132;-1.586;2023-04-01T04:03:52;100065.38;;;9.39;100.00
71165;BME280;58859;55.132;-1.586;2023-04-01T04:06:19;100073.19;;;9.47;100.00
71165;BME280;58859;55.132;-1.586;2023-04-01T04:08:44;100078.94;;;9.58;100.00
71165;BME280;58859;55.132;-1.586;2023-04-01T04:11:09;100082.44;;;9.49;100.00
71165;BME280;58859;55.132;-1.586;2023-04-01T04:13:35;100084.75;;;9.60;100.00
71165;BME280;58859;55.132;-1.586;2023-04-01T04:16:02;100085.06;;;9.57;100.00
71165;BME280;58859;55.132;-1.586;2023-04-01T04:18:27;100087.91;;;9.80;100.00
71165;BME280;58859;55.132;-1.586;2023-04-01T04:20:53;100089.66;;;9.63;100.00
71165;BME280;58859;55.132;-1.586;2023-04-01T04:23:18;100088.91;;;9.45;100.00
71165;BME280;58859;55.132;-1.586;2023-04-01T04:26:02;100087.34;;;9.52;100.00
71165;BME280;58859;55.132;-1.586;2023-04-01T04:28:29;100098.69;;;9.59;100.00
71165;BME280;58859;55.132;-1.586;2023-04-01T04:30:54;100089.88;;;9.78;100.00
71165;BME280;58859;55.132;-1.586;2023-04-01T04:33:21;100106.00;;;9.56;100.00
71165;BME280;58859;55.132;-1.586;2023-04-01T04:35:46;100103.56;;;9.54;100.00
71165;BME280;58859;55.132;-1.586;2023-04-01T04:38:11;100106.03;;;9.64;100.00
71165;BME280;58859;55.132;-1.586;2023-04-01T04:40:40;100111.69;;;9.59;100.00
71165;BME280;58859;55.132;-1.586;2023-04-01T04:43:06;100115.28;;;9.58;100.00
71165;BME280;58859;55.132;-1.586;2023-04-01T04:45:32;100107.28;;;9.52;100.00
71165;BME280;58859;55.132;-1.586;2023-04-01T04:47:57;100117.25;;;9.64;100.00
71165;BME280;58859;55.132;-1.586;2023-04-01T04:50:23;100113.38;;;9.76;100.00
71165;BME280;58859;55.132;-1.586;2023-04-01T04:52:50;100122.84;;;9.52;100.00
71165;BME280;58859;55.132;-1.586;2023-04-01T04:55:15;100115.38;;;9.49;100.00
71165;BME280;58859;55.132;-1.586;2023-04-01T04:57:41;100123.56;;;9.62;100.00
71165;BME280;58859;55.132;-1.586;2023-04-01T05:00:07;100107.34;;;9.34;100.00
71165;BME280;58859;55.132;-1.586;2023-04-01T05:02:33;100128.56;;;9.55;100.00
71165;BME280;58859;55.132;-1.586;2023-04-01T05:04:59;100118.72;;;9.33;100.00
71165;BME280;58859;55.132;-1.586;2023-04-01T05:07:25;100130.50;;;9.53;100.00
71165;BME280;58859;55.132;-1.586;2023-04-01T05:09:50;100138.59;;;9.50;100.00
71165;BME280;58859;55.132;-1.586;2023-04-01T05:12:15;100132.88;;;9.47;100.00
71165;BME280;58859;55.132;-1.586;2023-04-01T05:14:41;100141.03;;;9.52;100.00
71165;BME280;58859;55.132;-1.586;2023-04-01T05:17:11;100141.22;;;9.58;100.00
71165;BME280;58859;55.132;-1.586;2023-04-01T05:19:37;100146.56;;;9.57;100.00
71165;BME280;58859;55.132;-1.586;2023-04-01T05:22:03;100146.38;;;9.50;100.00
71165;BME280;58859;55.132;-1.586;2023-04-01T05:24:28;100143.06;;;9.40;100.00
71165;BME280;58859;55.132;-1.586;2023-04-01T05:26:54;100150.75;;;9.24;100.00
71165;BME280;58859;55.132;-1.586;2023-04-01T05:29:21;100155.38;;;9.38;100.00
71165;BME280;58859;55.132;-1.586;2023-04-01T05:31:46;100156.25;;;9.47;100.00
71165;BME280;58859;55.132;-1.586;2023-04-01T05:34:13;100166.03;;;9.53;100.00
71165;BME280;58859;55.132;-1.586;2023-04-01T05:36:38;100164.03;;;9.47;100.00
71165;BME280;58859;55.132;-1.586;2023-04-01T05:39:03;100167.38;;;9.65;100.00
71165;BME280;58859;55.132;-1.586;2023-04-01T05:41:29;100159.78;;;9.71;100.00
71165;BME280;58859;55.132;-1.586;2023-04-01T05:43:54;100167.88;;;9.68;100.00
71165;BME280;58859;55.132;-1.586;2023-04-01T05:46:20;100173.94;;;9.77;100.00
71165;BME280;58859;55.132;-1.586;2023-04-01T05:48:46;100177.97;;;9.71;100.00
71165;BME280;58859;55.132;-1.586;2023-04-01T05:51:13;100188.91;;;9.83;100.00
71165;BME280;58859;55.132;-1.586;2023-04-01T05:53:39;100188.47;;;9.62;100.00
71165;BME280;58859;55.132;-1.586;2023-04-01T05:56:05;100189.38;;;9.78;100.00
71165;BME280;58859;55.132;-1.586;2023-04-01T05:58:30;100189.47;;;9.69;100.00
71165;BME280;58859;55.132;-1.586;2023-04-01T06:01:04;100191.78;;;9.46;100.00
71165;BME280;58859;55.132;-1.586;2023-04-01T06:03:29;100190.03;;;9.55;100.00
71165;BME280;58859;55.132;-1.586;2023-04-01T06:05:55;100197.34;;;9.59;100.00
71165;BME280;58859;55.132;-1.586;2023-04-01T06:08:20;100165.72;;;9.90;100.00
71165;BME280;58859;55.132;-1.586;2023-04-01T06:32:26;100226.69;;;10.11;100.00
71165;BME280;58859;55.132;-1.586;2023-04-01T06:37:52;100228.66;;;10.09;100.00
71165;BME280;58859;55.132;-1.586;2023-04-01T06:46:27;100242.75;;;10.32;100.00
71165;BME280;58859;55.132;-1.586;2023-04-01T06:49:29;100247.09;;;10.24;100.00
71165;BME280;58859;55.132;-1.586;2023-04-01T06:54:38;100257.13;;;10.53;100.00
71165;BME280;58859;55.132;-1.586;2023-04-01T06:57:29;100262.47;;;10.59;100.00
71165;BME280;58859;55.132;-1.586;2023-04-01T06:59:59;100259.75;;;10.69;100.00
71165;BME280;58859;55.132;-1.586;2023-04-01T07:02:43;100264.31;;;10.67;100.00
71165;BME280;58859;55.132;-1.586;2023-04-01T07:05:11;100260.31;;;10.38;100.00
71165;BME280;58859;55.132;-1.586;2023-04-01T07:07:42;100272.44;;;10.64;100.00
71165;BME280;58859;55.132;-1.586;2023-04-01T07:13:13;100282.44;;;10.92;100.00
71165;BME280;58859;55.132;-1.586;2023-04-01T07:15:43;100287.47;;;11.10;100.00
71165;BME280;58859;55.132;-1.586;2023-04-01T07:18:22;100286.50;;;11.03;100.00
71165;BME280;58859;55.132;-1.586;2023-04-01T07:20:51;100284.56;;;11.21;100.00
71165;BME280;58859;55.132;-1.586;2023-04-01T07:23:23;100296.25;;;11.01;100.00
71165;BME280;58859;55.132;-1.586;2023-04-01T07:25:55;100304.41;;;11.06;100.00
71165;BME280;58859;55.132;-1.586;2023-04-01T07:28:23;100304.50;;;10.80;100.00
71165;BME280;58859;55.132;-1.586;2023-04-01T07:31:04;100302.97;;;11.68;100.00
71165;BME280;58859;55.132;-1.586;2023-04-01T07:33:47;100305.41;;;11.45;100.00
71165;BME280;58859;55.132;-1.586;2023-04-01T07:36:31;100302.59;;;12.03;100.00
71165;BME280;58859;55.132;-1.586;2023-04-01T07:41:51;100309.91;;;12.24;100.00
71165;BME280;58859;55.132;-1.586;2023-04-01T07:53:03;100319.25;;;11.54;100.00
71165;BME280;58859;55.132;-1.586;2023-04-01T07:56:01;100322.19;;;11.91;100.00
71165;BME280;58859;55.132;-1.586;2023-04-01T08:06:32;100349.53;;;11.63;100.00
71165;BME280;58859;55.132;-1.586;2023-04-01T08:12:21;100351.53;;;11.77;100.00
71165;BME280;58859;55.132;-1.586;2023-04-01T08:15:13;100359.13;;;11.46;100.00
71165;BME280;58859;55.132;-1.586;2023-04-01T08:22:51;100369.84;;;11.35;100.00
71165;BME280;58859;55.132;-1.586;2023-04-01T08:25:24;100372.00;;;10.90;100.00
71165;BME280;58859;55.132;-1.586;2023-04-01T08:27:58;100374.81;;;11.05;100.00
71165;BME280;58859;55.132;-1.586;2023-04-01T08:30:29;100386.00;;;10.97;100.00
71165;BME280;58859;55.132;-1.586;2023-04-01T08:38:15;100393.94;;;10.87;100.00
71165;BME280;58859;55.132;-1.586;2023-04-01T08:40:55;100401.41;;;10.82;100.00
71165;BME280;58859;55.132;-1.586;2023-04-01T08:46:30;100412.19;;;10.62;100.00
71165;BME280;58859;55.132;-1.586;2023-04-01T08:54:38;100424.97;;;10.47;100.00
71165;BME280;58859;55.132;-1.586;2023-04-01T09:06:07;100445.13;;;10.53;100.00
71165;BME280;58859;55.132;-1.586;2023-04-01T09:25:43;100471.91;;;11.47;100.00
71165;BME280;58859;55.132;-1.586;2023-04-01T09:36:45;100481.50;;;11.96;100.00
71165;BME280;58859;55.132;-1.586;2023-04-01T09:44:24;100493.69;;;11.88;100.00
71165;BME280;58859;55.132;-1.586;2023-04-01T09:49:31;100504.75;;;11.82;100.00
71165;BME280;58859;55.132;-1.586;2023-04-01T09:52:32;100500.91;;;11.52;100.00
71165;BME280;58859;55.132;-1.586;2023-04-01T09:58:32;100511.22;;;11.28;100.00
71165;BME280;58859;55.132;-1.586;2023-04-01T10:02:00;100518.63;;;11.40;100.00
71165;BME280;58859;55.132;-1.586;2023-04-01T10:05:20;100523.38;;;11.53;100.00
71165;BME280;58859;55.132;-1.586;2023-04-01T10:08:00;100537.22;;;12.12;100.00
71165;BME280;58859;55.132;-1.586;2023-04-01T10:52:06;100602.75;;;12.17;100.00
71165;BME280;58859;55.132;-1.586;2023-04-01T10:54:45;100604.09;;;12.37;100.00
71165;BME280;58859;55.132;-1.586;2023-04-01T11:22:09;100641.06;;;12.40;100.00
71165;BME280;58859;55.132;-1.586;2023-04-01T11:24:45;100649.91;;;12.63;100.00
71165;BME280;58859;55.132;-1.586;2023-04-01T11:35:56;100665.78;;;13.10;100.00
71165;BME280;58859;55.132;-1.586;2023-04-01T11:38:42;100665.28;;;12.99;100.00
71165;BME280;58859;55.132;-1.586;2023-04-01T11:44:21;100684.22;;;13.33;100.00
71165;BME280;58859;55.132;-1.586;2023-04-01T11:47:19;100686.50;;;12.96;100.00
71165;BME280;58859;55.132;-1.586;2023-04-01T11:53:01;100694.66;;;13.17;100.00
71165;BME280;58859;55.132;-1.586;2023-04-01T11:58:26;100710.00;;;13.36;100.00
71165;BME280;58859;55.132;-1.586;2023-04-01T12:01:33;100708.38;;;13.27;100.00
71165;BME280;58859;55.132;-1.586;2023-04-01T12:14:47;100733.63;;;14.30;100.00
71165;BME280;58859;55.132;-1.586;2023-04-01T12:17:39;100728.63;;;15.42;100.00
71165;BME280;58859;55.132;-1.586;2023-04-01T12:28:19;100749.75;;;13.95;100.00
71165;BME280;58859;55.132;-1.586;2023-04-01T12:33:44;100771.38;;;14.44;100.00
71165;BME280;58859;55.132;-1.586;2023-04-01T12:50:28;100782.97;;;15.25;100.00
71165;BME280;58859;55.132;-1.586;2023-04-01T12:53:22;100788.00;;;14.81;100.00
71165;BME280;58859;55.132;-1.586;2023-04-01T12:56:00;100796.38;;;14.46;100.00
71165;BME280;58859;55.132;-1.586;2023-04-01T12:58:49;100797.06;;;14.71;100.00
71165;BME280;58859;55.132;-1.586;2023-04-01T13:08:01;100817.34;;;14.77;100.00
71165;BME280;58859;55.132;-1.586;2023-04-01T13:26:07;100840.09;;;14.21;100.00
71165;BME280;58859;55.132;-1.586;2023-04-01T13:44:51;100870.06;;;15.05;100.00
71165;BME280;58859;55.132;-1.586;2023-04-01T13:52:46;100876.34;;;15.26;100.00
71165;BME280;58859;55.132;-1.586;2023-04-01T13:55:34;100883.16;;;15.05;100.00
71165;BME280;58859;55.132;-1.586;2023-04-01T14:00:54;100894.34;;;14.44;100.00
71165;BME280;58859;55.132;-1.586;2023-04-01T14:14:35;100910.59;;;14.86;100.00
71165;BME280;58859;55.132;-1.586;2023-04-01T14:17:10;100923.19;;;14.82;100.00
71165;BME280;58859;55.132;-1.586;2023-04-01T14:25:32;100925.28;;;13.92;100.00
71165;BME280;58859;55.132;-1.586;2023-04-01T14:35:58;100938.00;;;14.03;100.00
71165;BME280;58859;55.132;-1.586;2023-04-01T14:38:31;100946.47;;;14.77;100.00
71165;BME280;58859;55.132;-1.586;2023-04-01T14:41:19;100949.66;;;14.32;100.00
71165;BME280;58859;55.132;-1.586;2023-04-01T14:46:34;100959.44;;;14.55;100.00
71165;BME280;58859;55.132;-1.586;2023-04-01T14:49:17;100932.94;;;14.50;100.00
71165;BME280;58859;55.132;-1.586;2023-04-01T14:51:45;100973.50;;;14.21;100.00
71165;BME280;58859;55.132;-1.586;2023-04-01T14:59:08;100995.75;;;14.50;100.00
71165;BME280;58859;55.132;-1.586;2023-04-01T15:19:09;101025.00;;;14.13;100.00
71165;BME280;58859;55.132;-1.586;2023-04-01T15:24:21;101031.75;;;12.98;100.00
71165;BME280;58859;55.132;-1.586;2023-04-01T15:29:43;101034.03;;;13.60;100.00
71165;BME280;58859;55.132;-1.586;2023-04-01T15:38:20;101056.66;;;13.36;100.00
71165;BME280;58859;55.132;-1.586;2023-04-01T15:41:01;101059.88;;;13.04;100.00
71165;BME280;58859;55.132;-1.586;2023-04-01T15:43:46;101063.91;;;13.58;100.00
71165;BME280;58859;55.132;-1.586;2023-04-01T15:49:32;101081.97;;;12.92;100.00
71165;BME280;58859;55.132;-1.586;2023-04-01T16:09:21;101105.13;;;12.69;100.00
71165;BME280;58859;55.132;-1.586;2023-04-01T16:11:59;101115.19;;;12.82;100.00
71165;BME280;58859;55.132;-1.586;2023-04-01T16:14:55;101126.41;;;12.39;100.00
71165;BME280;58859;55.132;-1.586;2023-04-01T16:20:02;101135.47;;;12.70;100.00
71165;BME280;58859;55.132;-1.586;2023-04-01T16:22:35;101142.47;;;12.52;100.00
71165;BME280;58859;55.132;-1.586;2023-04-01T16:25:26;101138.03;;;12.62;100.00
71165;BME280;58859;55.132;-1.586;2023-04-01T16:30:55;101155.09;;;12.56;100.00
71165;BME280;58859;55.132;-1.586;2023-04-01T16:36:26;101152.03;;;12.43;100.00
71165;BME280;58859;55.132;-1.586;2023-04-01T16:41:47;101175.16;;;12.56;100.00
71165;BME280;58859;55.132;-1.586;2023-04-01T16:44:23;101177.69;;;12.21;100.00
71165;BME280;58859;55.132;-1.586;2023-04-01T16:49:27;101190.44;;;12.24;100.00
71165;BME280;58859;55.132;-1.586;2023-04-01T16:54:59;101190.53;;;12.32;100.00
71165;BME280;58859;55.132;-1.586;2023-04-01T16:57:56;101197.28;;;12.52;100.00
71165;BME280;58859;55.132;-1.586;2023-04-01T17:00:25;101202.56;;;12.42;100.00
71165;BME280;58859;55.132;-1.586;2023-04-01T17:05:16;101207.50;;;12.18;100.00
71165;BME280;58859;55.132;-1.586;2023-04-01T17:16:20;101239.25;;;12.14;100.00
71165;BME280;58859;55.132;-1.586;2023-04-01T17:33:13;101258.53;;;12.21;100.00
71165;BME280;58859;55.132;-1.586;2023-04-01T17:35:53;101264.47;;;12.23;100.00
71165;BME280;58859;55.132;-1.586;2023-04-01T17:38:44;101268.19;;;12.10;100.00
71165;BME280;58859;55.132;-1.586;2023-04-01T17:49:42;101294.44;;;11.99;100.00
71165;BME280;58859;55.132;-1.586;2023-04-01T17:55:43;101301.34;;;11.91;100.00
71165;BME280;58859;55.132;-1.586;2023-04-01T18:06:17;101332.75;;;11.32;100.00
71165;BME280;58859;55.132;-1.586;2023-04-01T18:09:16;101336.13;;;12.09;100.00
71165;BME280;58859;55.132;-1.586;2023-04-01T18:12:11;101343.03;;;11.91;100.00
71165;BME280;58859;55.132;-1.586;2023-04-01T18:20:22;101358.28;;;11.86;100.00
71165;BME280;58859;55.132;-1.586;2023-04-01T18:23:00;101354.25;;;12.01;100.00
71165;BME280;58859;55.132;-1.586;2023-04-01T18:25:38;101374.00;;;12.13;100.00
71165;BME280;58859;55.132;-1.586;2023-04-01T18:30:32;101375.78;;;11.55;100.00
71165;BME280;58859;55.132;-1.586;2023-04-01T18:33:09;101386.13;;;11.76;100.00
71165;BME280;58859;55.132;-1.586;2023-04-01T18:35:53;101388.41;;;11.98;100.00
71165;BME280;58859;55.132;-1.586;2023-04-01T18:38:28;101400.63;;;11.59;100.00
71165;BME280;58859;55.132;-1.586;2023-04-01T18:52:19;101418.56;;;11.52;100.00
71165;BME280;58859;55.132;-1.586;2023-04-01T18:57:49;101430.25;;;11.48;100.00
71165;BME280;58859;55.132;-1.586;2023-04-01T19:00:21;101432.69;;;11.50;100.00
71165;BME280;58859;55.132;-1.586;2023-04-01T19:02:58;101436.16;;;11.60;100.00
71165;BME280;58859;55.132;-1.586;2023-04-01T19:08:26;101446.06;;;11.85;100.00
71165;BME280;58859;55.132;-1.586;2023-04-01T19:13:35;101449.31;;;11.49;100.00
71165;BME280;58859;55.132;-1.586;2023-04-01T19:19:00;101461.72;;;11.85;100.00
71165;BME280;58859;55.132;-1.586;2023-04-01T19:21:53;101477.34;;;11.36;100.00
71165;BME280;58859;55.132;-1.586;2023-04-01T19:24:32;101477.50;;;11.34;100.00
71165;BME280;58859;55.132;-1.586;2023-04-01T19:37:54;101503.56;;;11.04;100.00
71165;BME280;58859;55.132;-1.586;2023-04-01T19:43:26;101514.75;;;11.25;100.00
71165;BME280;58859;55.132;-1.586;2023-04-01T19:46:04;101513.63;;;11.18;100.00
71165;BME280;58859;55.132;-1.586;2023-04-01T19:54:28;101537.38;;;11.04;100.00
71165;BME280;58859;55.132;-1.586;2023-04-01T19:57:16;101536.56;;;11.34;100.00
71165;BME280;58859;55.132;-1.586;2023-04-01T20:02:33;101548.53;;;11.06;100.00
71165;BME280;58859;55.132;-1.586;2023-04-01T20:05:23;101551.25;;;11.35;100.00
71165;BME280;58859;55.132;-1.586;2023-04-01T20:07:52;101557.78;;;10.99;100.00
71165;BME280;58859;55.132;-1.586;2023-04-01T20:10:57;101564.31;;;10.93;100.00
71165;BME280;58859;55.132;-1.586;2023-04-01T20:13:30;101566.31;;;11.01;100.00
71165;BME280;58859;55.132;-1.586;2023-04-01T20:16:04;101561.41;;;11.08;100.00
71165;BME280;58859;55.132;-1.586;2023-04-01T20:18:37;101582.78;;;11.11;100.00
71165;BME280;58859;55.132;-1.586;2023-04-01T20:21:43;101588.75;;;10.81;100.00
71165;BME280;58859;55.132;-1.586;2023-04-01T20:26:47;101596.34;;;11.35;100.00
71165;BME280;58859;55.132;-1.586;2023-04-01T20:29:41;101608.25;;;11.08;100.00
71165;BME280;58859;55.132;-1.586;2023-04-01T20:35:25;101613.44;;;10.87;100.00
71165;BME280;58859;55.132;-1.586;2023-04-01T20:43:52;101632.50;;;10.87;100.00
71165;BME280;58859;55.132;-1.586;2023-04-01T20:46:34;101630.84;;;11.07;100.00
71165;BME280;58859;55.132;-1.586;2023-04-01T20:51:37;101642.66;;;10.70;100.00
71165;BME280;58859;55.132;-1.586;2023-04-01T20:54:43;101643.66;;;10.58;100.00
71165;BME280;58859;55.132;-1.586;2023-04-01T20:57:16;101642.97;;;10.76;100.00
71165;BME280;58859;55.132;-1.586;2023-04-01T21:08:49;101659.03;;;10.81;100.00
71165;BME280;58859;55.132;-1.586;2023-04-01T21:11:24;101668.31;;;10.95;100.00
71165;BME280;58859;55.132;-1.586;2023-04-01T21:14:25;101667.09;;;10.99;100.00
71165;BME280;58859;55.132;-1.586;2023-04-01T21:28:02;101683.22;;;10.93;100.00
71165;BME280;58859;55.132;-1.586;2023-04-01T21:33:17;101685.66;;;10.74;100.00
71165;BME280;58859;55.132;-1.586;2023-04-01T21:41:08;101696.47;;;10.90;100.00
71165;BME280;58859;55.132;-1.586;2023-04-01T21:46:26;101701.72;;;10.79;100.00
71165;BME280;58859;55.132;-1.586;2023-04-01T21:49:21;101705.13;;;10.90;100.00
71165;BME280;58859;55.132;-1.586;2023-04-01T22:05:22;101737.06;;;10.92;100.00
71165;BME280;58859;55.132;-1.586;2023-04-01T22:13:31;101753.03;;;10.88;100.00
71165;BME280;58859;55.132;-1.586;2023-04-01T22:18:51;101759.84;;;10.68;100.00
71165;BME280;58859;55.132;-1.586;2023-04-01T22:21:32;101757.00;;;10.71;100.00
71165;BME280;58859;55.132;-1.586;2023-04-01T22:30:23;101761.09;;;10.85;100.00
71165;BME280;58859;55.132;-1.586;2023-04-01T22:43:37;101781.81;;;10.86;100.00
71165;BME280;58859;55.132;-1.586;2023-04-01T22:48:50;101782.25;;;10.91;100.00
71165;BME280;58859;55.132;-1.586;2023-04-01T22:51:39;101789.66;;;10.75;100.00
71165;BME280;58859;55.132;-1.586;2023-04-01T22:57:02;101791.97;;;10.89;100.00